sensor_id;sensor_type;location;lat;lon;timestamp;P1;durP1;ratioP1;P2;durP2;ratioP2
81821;SDS011;72257;52.384;4.882;2024-01-30T00:00:21;17.97;;;10.53;;
81821;SDS011;72257;52.384;4.882;2024-01-30T00:02:46;15.18;;;9.38;;
81821;SDS011;72257;52.384;4.882;2024-01-30T00:05:12;17.77;;;10.20;;
81821;SDS011;72257;52.384;4.882;2024-01-30T00:07:37;19.48;;;11.38;;
81821;SDS011;72257;52.384;4.882;2024-01-30T00:10:02;16.43;;;9.77;;
81821;SDS011;72257;52.384;4.882;2024-01-30T00:12:28;15.10;;;9.75;;
81821;SDS011;72257;52.384;4.882;2024-01-30T00:14:53;18.90;;;9.77;;
81821;SDS011;72257;52.384;4.882;2024-01-30T00:17:19;18.35;;;10.30;;
81821;SDS011;72257;52.384;4.882;2024-01-30T00:19:45;17.33;;;10.15;;
81821;SDS011;72257;52.384;4.882;2024-01-30T00:22:11;15.45;;;9.45;;
81821;SDS011;72257;52.384;4.882;2024-01-30T00:24:36;21.35;;;10.23;;
81821;SDS011;72257;52.384;4.882;2024-01-30T00:27:02;21.40;;;10.27;;
81821;SDS011;72257;52.384;4.882;2024-01-30T00:29:27;15.98;;;9.50;;
81821;SDS011;72257;52.384;4.882;2024-01-30T00:31:56;16.50;;;9.20;;
81821;SDS011;72257;52.384;4.882;2024-01-30T00:34:21;15.65;;;9.57;;
81821;SDS011;72257;52.384;4.882;2024-01-30T00:36:46;15.50;;;9.27;;
81821;SDS011;72257;52.384;4.882;2024-01-30T00:39:12;20.23;;;10.18;;
81821;SDS011;72257;52.384;4.882;2024-01-30T00:41:37;16.10;;;9.77;;
81821;SDS011;72257;52.384;4.882;2024-01-30T00:44:03;15.48;;;9.98;;
81821;SDS011;72257;52.384;4.882;2024-01-30T00:46:28;17.55;;;9.05;;
81821;SDS011;72257;52.384;4.882;2024-01-30T00:48:54;17.38;;;9.43;;
81821;SDS011;72257;52.384;4.882;2024-01-30T00:51:19;17.17;;;9.90;;
81821;SDS011;72257;52.384;4.882;2024-01-30T00:53:44;13.70;;;8.93;;
81821;SDS011;72257;52.384;4.882;2024-01-30T00:56:10;16.85;;;9.25;;
81821;SDS011;72257;52.384;4.882;2024-01-30T00:58:35;15.10;;;9.13;;
81821;SDS011;72257;52.384;4.882;2024-01-30T01:01:01;15.80;;;9.30;;
81821;SDS011;72257;52.384;4.882;2024-01-30T01:03:26;13.60;;;7.80;;
81821;SDS011;72257;52.384;4.882;2024-01-30T01:05:51;15.10;;;9.57;;
81821;SDS011;72257;52.384;4.882;2024-01-30T01:08:17;14.40;;;8.47;;
81821;SDS011;72257;52.384;4.882;2024-01-30T01:10:43;15.05;;;8.77;;
81821;SDS011;72257;52.384;4.882;2024-01-30T01:13:08;16.47;;;9.03;;
81821;SDS011;72257;52.384;4.882;2024-01-30T01:15:33;15.30;;;8.83;;
81821;SDS011;72257;52.384;4.882;2024-01-30T01:17:58;14.90;;;8.80;;
81821;SDS011;72257;52.384;4.882;2024-01-30T01:20:24;16.17;;;9.03;;
81821;SDS011;72257;52.384;4.882;2024-01-30T01:22:49;16.23;;;9.35;;
81821;SDS011;72257;52.384;4.882;2024-01-30T01:25:15;14.30;;;8.73;;
81821;SDS011;72257;52.384;4.882;2024-01-30T01:27:40;15.23;;;8.07;;
81821;SDS011;72257;52.384;4.882;2024-01-30T01:30:10;14.15;;;8.60;;
81821;SDS011;72257;52.384;4.882;2024-01-30T01:32:36;16.77;;;9.00;;
81821;SDS011;72257;52.384;4.882;2024-01-30T01:35:03;13.15;;;8.45;;
81821;SDS011;72257;52.384;4.882;2024-01-30T01:37:30;14.27;;;8.88;;
81821;SDS011;72257;52.384;4.882;2024-01-30T01:39:56;14.18;;;8.40;;
81821;SDS011;72257;52.384;4.882;2024-01-30T01:42:21;15.50;;;8.40;;
81821;SDS011;72257;52.384;4.882;2024-01-30T01:44:47;14.25;;;7.70;;
81821;SDS011;72257;52.384;4.882;2024-01-30T01:47:12;15.65;;;8.48;;
81821;SDS011;72257;52.384;4.882;2024-01-30T01:49:38;15.00;;;8.40;;
81821;SDS011;72257;52.384;4.882;2024-01-30T01:52:04;14.27;;;7.68;;
81821;SDS011;72257;52.384;4.882;2024-01-30T01:54:29;13.80;;;7.65;;
81821;SDS011;72257;52.384;4.882;2024-01-30T01:56:55;14.82;;;7.78;;
81821;SDS011;72257;52.384;4.882;2024-01-30T01:59:21;15.70;;;8.30;;
81821;SDS011;72257;52.384;4.882;2024-01-30T02:01:48;15.40;;;8.38;;
81821;SDS011;72257;52.384;4.882;2024-01-30T02:04:14;15.60;;;8.55;;
81821;SDS011;72257;52.384;4.882;2024-01-30T02:06:40;12.15;;;7.47;;
81821;SDS011;72257;52.384;4.882;2024-01-30T02:09:06;14.90;;;7.78;;
81821;SDS011;72257;52.384;4.882;2024-01-30T02:11:32;13.43;;;7.97;;
81821;SDS011;72257;52.384;4.882;2024-01-30T02:13:57;17.15;;;7.78;;
81821;SDS011;72257;52.384;4.882;2024-01-30T02:16:27;13.40;;;8.13;;
81821;SDS011;72257;52.384;4.882;2024-01-30T02:18:53;14.32;;;8.23;;
81821;SDS011;72257;52.384;4.882;2024-01-30T02:21:18;13.17;;;7.90;;
81821;SDS011;72257;52.384;4.882;2024-01-30T02:23:44;13.10;;;7.70;;
81821;SDS011;72257;52.384;4.882;2024-01-30T02:26:12;14.07;;;8.00;;
81821;SDS011;72257;52.384;4.882;2024-01-30T02:28:37;12.82;;;7.97;;
81821;SDS011;72257;52.384;4.882;2024-01-30T02:31:03;14.10;;;7.93;;
81821;SDS011;72257;52.384;4.882;2024-01-30T02:33:29;14.75;;;7.30;;
81821;SDS011;72257;52.384;4.882;2024-01-30T02:35:54;13.32;;;7.50;;
81821;SDS011;72257;52.384;4.882;2024-01-30T02:38:20;13.55;;;7.70;;
81821;SDS011;72257;52.384;4.882;2024-01-30T02:40:45;13.80;;;7.45;;
81821;SDS011;72257;52.384;4.882;2024-01-30T02:43:11;12.90;;;7.07;;
81821;SDS011;72257;52.384;4.882;2024-01-30T02:45:36;14.10;;;7.75;;
81821;SDS011;72257;52.384;4.882;2024-01-30T02:48:01;14.23;;;7.60;;
81821;SDS011;72257;52.384;4.882;2024-01-30T02:50:27;13.10;;;6.82;;
81821;SDS011;72257;52.384;4.882;2024-01-30T02:52:52;12.80;;;7.23;;
81821;SDS011;72257;52.384;4.882;2024-01-30T02:55:18;13.48;;;7.53;;
81821;SDS011;72257;52.384;4.882;2024-01-30T02:57:43;11.10;;;6.75;;
81821;SDS011;72257;52.384;4.882;2024-01-30T03:00:09;11.68;;;6.40;;
81821;SDS011;72257;52.384;4.882;2024-01-30T03:02:35;12.70;;;8.05;;
81821;SDS011;72257;52.384;4.882;2024-01-30T03:05:01;14.25;;;7.72;;
81821;SDS011;72257;52.384;4.882;2024-01-30T03:07:26;12.10;;;7.68;;
81821;SDS011;72257;52.384;4.882;2024-01-30T03:09:51;10.80;;;6.70;;
81821;SDS011;72257;52.384;4.882;2024-01-30T03:12:17;12.68;;;7.47;;
81821;SDS011;72257;52.384;4.882;2024-01-30T03:14:42;11.87;;;7.00;;
81821;SDS011;72257;52.384;4.882;2024-01-30T03:17:08;16.50;;;7.87;;
81821;SDS011;72257;52.384;4.882;2024-01-30T03:19:33;11.33;;;6.67;;
81821;SDS011;72257;52.384;4.882;2024-01-30T03:21:58;13.17;;;8.17;;
81821;SDS011;72257;52.384;4.882;2024-01-30T03:24:24;11.02;;;6.75;;
81821;SDS011;72257;52.384;4.882;2024-01-30T03:26:49;14.90;;;7.25;;
81821;SDS011;72257;52.384;4.882;2024-01-30T03:29:15;11.10;;;6.70;;
81821;SDS011;72257;52.384;4.882;2024-01-30T03:31:40;10.73;;;6.45;;
81821;SDS011;72257;52.384;4.882;2024-01-30T03:34:06;12.82;;;7.32;;
81821;SDS011;72257;52.384;4.882;2024-01-30T03:36:31;13.13;;;7.33;;
81821;SDS011;72257;52.384;4.882;2024-01-30T03:38:59;11.80;;;6.68;;
81821;SDS011;72257;52.384;4.882;2024-01-30T03:41:24;12.20;;;7.30;;
81821;SDS011;72257;52.384;4.882;2024-01-30T03:43:50;13.37;;;7.50;;
81821;SDS011;72257;52.384;4.882;2024-01-30T03:46:15;10.63;;;6.63;;
81821;SDS011;72257;52.384;4.882;2024-01-30T03:48:40;13.63;;;7.57;;
81821;SDS011;72257;52.384;4.882;2024-01-30T03:51:06;11.90;;;7.43;;
81821;SDS011;72257;52.384;4.882;2024-01-30T03:53:31;12.60;;;7.17;;
81821;SDS011;72257;52.384;4.882;2024-01-30T03:55:56;15.77;;;7.20;;
81821;SDS011;72257;52.384;4.882;2024-01-30T03:58:22;11.53;;;7.00;;
81821;SDS011;72257;52.384;4.882;2024-01-30T04:00:47;11.40;;;7.10;;
81821;SDS011;72257;52.384;4.882;2024-01-30T04:03:13;14.63;;;6.97;;
81821;SDS011;72257;52.384;4.882;2024-01-30T04:05:40;11.18;;;6.47;;
81821;SDS011;72257;52.384;4.882;2024-01-30T04:08:05;13.27;;;6.60;;
81821;SDS011;72257;52.384;4.882;2024-01-30T04:10:31;14.38;;;7.35;;
81821;SDS011;72257;52.384;4.882;2024-01-30T04:12:56;12.03;;;7.10;;
81821;SDS011;72257;52.384;4.882;2024-01-30T04:15:21;16.57;;;7.07;;
81821;SDS011;72257;52.384;4.882;2024-01-30T04:17:47;10.67;;;7.03;;
81821;SDS011;72257;52.384;4.882;2024-01-30T04:20:15;10.13;;;6.10;;
81821;SDS011;72257;52.384;4.882;2024-01-30T04:22:42;10.65;;;5.95;;
81821;SDS011;72257;52.384;4.882;2024-01-30T04:25:11;11.77;;;6.53;;
81821;SDS011;72257;52.384;4.882;2024-01-30T04:27:37;12.35;;;6.55;;
81821;SDS011;72257;52.384;4.882;2024-01-30T04:30:03;12.30;;;7.47;;
81821;SDS011;72257;52.384;4.882;2024-01-30T04:32:28;11.50;;;6.47;;
81821;SDS011;72257;52.384;4.882;2024-01-30T04:34:54;12.30;;;6.80;;
81821;SDS011;72257;52.384;4.882;2024-01-30T04:37:19;10.80;;;6.07;;
81821;SDS011;72257;52.384;4.882;2024-01-30T04:39:45;10.83;;;7.03;;
81821;SDS011;72257;52.384;4.882;2024-01-30T04:42:10;11.83;;;6.13;;
81821;SDS011;72257;52.384;4.882;2024-01-30T04:44:35;10.50;;;6.70;;
81821;SDS011;72257;52.384;4.882;2024-01-30T04:47:01;11.40;;;6.90;;
81821;SDS011;72257;52.384;4.882;2024-01-30T04:49:27;12.63;;;7.38;;
81821;SDS011;72257;52.384;4.882;2024-01-30T04:51:52;13.90;;;6.93;;
81821;SDS011;72257;52.384;4.882;2024-01-30T04:54:18;14.70;;;7.13;;
81821;SDS011;72257;52.384;4.882;2024-01-30T04:56:43;13.07;;;7.10;;
81821;SDS011;72257;52.384;4.882;2024-01-30T04:59:08;9.17;;;6.17;;
81821;SDS011;72257;52.384;4.882;2024-01-30T05:01:34;12.15;;;7.00;;
81821;SDS011;72257;52.384;4.882;2024-01-30T05:03:59;11.53;;;6.77;;
81821;SDS011;72257;52.384;4.882;2024-01-30T05:06:26;10.85;;;7.13;;
81821;SDS011;72257;52.384;4.882;2024-01-30T05:08:52;12.10;;;6.50;;
81821;SDS011;72257;52.384;4.882;2024-01-30T05:11:17;12.10;;;6.78;;
81821;SDS011;72257;52.384;4.882;2024-01-30T05:13:43;11.07;;;6.70;;
81821;SDS011;72257;52.384;4.882;2024-01-30T05:16:08;10.13;;;6.30;;
81821;SDS011;72257;52.384;4.882;2024-01-30T05:18:33;13.63;;;6.67;;
81821;SDS011;72257;52.384;4.882;2024-01-30T05:20:59;12.50;;;6.97;;
81821;SDS011;72257;52.384;4.882;2024-01-30T05:23:24;11.73;;;6.53;;
81821;SDS011;72257;52.384;4.882;2024-01-30T05:25:50;11.98;;;6.95;;
81821;SDS011;72257;52.384;4.882;2024-01-30T05:28:15;14.73;;;6.82;;
81821;SDS011;72257;52.384;4.882;2024-01-30T05:30:40;12.23;;;6.78;;
81821;SDS011;72257;52.384;4.882;2024-01-30T05:33:06;11.43;;;6.07;;
81821;SDS011;72257;52.384;4.882;2024-01-30T05:35:31;13.23;;;7.63;;
81821;SDS011;72257;52.384;4.882;2024-01-30T05:37:56;11.43;;;6.93;;
81821;SDS011;72257;52.384;4.882;2024-01-30T05:40:22;10.98;;;6.32;;
81821;SDS011;72257;52.384;4.882;2024-01-30T05:42:47;10.88;;;6.60;;
81821;SDS011;72257;52.384;4.882;2024-01-30T05:45:13;12.63;;;6.97;;
81821;SDS011;72257;52.384;4.882;2024-01-30T05:47:38;11.03;;;7.10;;
81821;SDS011;72257;52.384;4.882;2024-01-30T05:50:04;12.57;;;6.80;;
81821;SDS011;72257;52.384;4.882;2024-01-30T05:52:30;10.20;;;6.32;;
81821;SDS011;72257;52.384;4.882;2024-01-30T05:54:55;12.83;;;7.00;;
81821;SDS011;72257;52.384;4.882;2024-01-30T05:57:20;13.13;;;7.07;;
81821;SDS011;72257;52.384;4.882;2024-01-30T05:59:46;13.90;;;7.20;;
81821;SDS011;72257;52.384;4.882;2024-01-30T06:02:12;10.90;;;7.05;;
81821;SDS011;72257;52.384;4.882;2024-01-30T06:04:38;10.90;;;7.05;;
81821;SDS011;72257;52.384;4.882;2024-01-30T06:07:04;12.67;;;6.97;;
81821;SDS011;72257;52.384;4.882;2024-01-30T06:09:31;11.23;;;7.07;;
81821;SDS011;72257;52.384;4.882;2024-01-30T06:11:57;10.80;;;6.22;;
81821;SDS011;72257;52.384;4.882;2024-01-30T06:14:22;11.18;;;5.72;;
81821;SDS011;72257;52.384;4.882;2024-01-30T06:16:48;13.60;;;7.38;;
81821;SDS011;72257;52.384;4.882;2024-01-30T06:19:13;10.83;;;6.93;;
81821;SDS011;72257;52.384;4.882;2024-01-30T06:21:38;11.27;;;6.37;;
81821;SDS011;72257;52.384;4.882;2024-01-30T06:24:04;10.43;;;6.47;;
81821;SDS011;72257;52.384;4.882;2024-01-30T06:26:30;11.75;;;6.63;;
81821;SDS011;72257;52.384;4.882;2024-01-30T06:28:56;10.50;;;6.40;;
81821;SDS011;72257;52.384;4.882;2024-01-30T06:31:21;10.32;;;5.97;;
81821;SDS011;72257;52.384;4.882;2024-01-30T06:33:47;10.07;;;5.83;;
81821;SDS011;72257;52.384;4.882;2024-01-30T06:36:12;10.02;;;6.28;;
81821;SDS011;72257;52.384;4.882;2024-01-30T06:38:38;9.97;;;6.77;;
81821;SDS011;72257;52.384;4.882;2024-01-30T06:41:04;13.38;;;6.05;;
81821;SDS011;72257;52.384;4.882;2024-01-30T06:43:30;11.30;;;6.40;;
81821;SDS011;72257;52.384;4.882;2024-01-30T06:45:55;11.23;;;6.83;;
81821;SDS011;72257;52.384;4.882;2024-01-30T06:48:20;10.27;;;5.70;;
81821;SDS011;72257;52.384;4.882;2024-01-30T06:50:46;12.77;;;6.97;;
81821;SDS011;72257;52.384;4.882;2024-01-30T06:53:12;11.85;;;6.22;;
81821;SDS011;72257;52.384;4.882;2024-01-30T06:55:38;12.05;;;6.68;;
81821;SDS011;72257;52.384;4.882;2024-01-30T06:58:03;10.85;;;6.38;;
81821;SDS011;72257;52.384;4.882;2024-01-30T07:00:29;12.50;;;6.40;;
81821;SDS011;72257;52.384;4.882;2024-01-30T07:02:54;12.60;;;7.03;;
81821;SDS011;72257;52.384;4.882;2024-01-30T07:05:19;11.33;;;6.47;;
81821;SDS011;72257;52.384;4.882;2024-01-30T07:07:46;14.45;;;6.28;;
81821;SDS011;72257;52.384;4.882;2024-01-30T07:10:12;12.03;;;6.77;;
81821;SDS011;72257;52.384;4.882;2024-01-30T07:12:37;12.18;;;6.13;;
81821;SDS011;72257;52.384;4.882;2024-01-30T07:15:03;11.80;;;6.32;;
81821;SDS011;72257;52.384;4.882;2024-01-30T07:17:28;12.27;;;6.25;;
81821;SDS011;72257;52.384;4.882;2024-01-30T07:19:54;13.48;;;6.50;;
81821;SDS011;72257;52.384;4.882;2024-01-30T07:22:19;16.10;;;7.33;;
81821;SDS011;72257;52.384;4.882;2024-01-30T07:24:44;10.77;;;5.43;;
81821;SDS011;72257;52.384;4.882;2024-01-30T07:27:12;13.18;;;6.38;;
81821;SDS011;72257;52.384;4.882;2024-01-30T07:29:38;10.40;;;6.03;;
81821;SDS011;72257;52.384;4.882;2024-01-30T07:32:03;11.13;;;6.27;;
81821;SDS011;72257;52.384;4.882;2024-01-30T07:34:29;11.57;;;6.38;;
81821;SDS011;72257;52.384;4.882;2024-01-30T07:36:54;11.40;;;5.90;;
81821;SDS011;72257;52.384;4.882;2024-01-30T07:39:19;9.40;;;6.43;;
81821;SDS011;72257;52.384;4.882;2024-01-30T07:41:44;15.90;;;7.27;;
81821;SDS011;72257;52.384;4.882;2024-01-30T07:44:10;9.43;;;6.00;;
81821;SDS011;72257;52.384;4.882;2024-01-30T07:46:35;9.40;;;6.57;;
81821;SDS011;72257;52.384;4.882;2024-01-30T07:49:00;9.43;;;5.90;;
81821;SDS011;72257;52.384;4.882;2024-01-30T07:51:26;11.05;;;6.95;;
81821;SDS011;72257;52.384;4.882;2024-01-30T07:53:53;12.27;;;6.43;;
81821;SDS011;72257;52.384;4.882;2024-01-30T07:56:18;9.15;;;5.55;;
81821;SDS011;72257;52.384;4.882;2024-01-30T07:58:44;10.23;;;5.60;;
81821;SDS011;72257;52.384;4.882;2024-01-30T08:01:09;10.93;;;6.25;;
81821;SDS011;72257;52.384;4.882;2024-01-30T08:03:35;11.77;;;6.55;;
81821;SDS011;72257;52.384;4.882;2024-01-30T08:06:01;10.57;;;6.50;;
81821;SDS011;72257;52.384;4.882;2024-01-30T08:08:28;12.43;;;6.78;;
81821;SDS011;72257;52.384;4.882;2024-01-30T08:10:53;11.73;;;6.23;;
81821;SDS011;72257;52.384;4.882;2024-01-30T08:13:18;13.23;;;6.25;;
81821;SDS011;72257;52.384;4.882;2024-01-30T08:15:44;14.07;;;6.75;;
81821;SDS011;72257;52.384;4.882;2024-01-30T08:18:09;10.88;;;5.75;;
81821;SDS011;72257;52.384;4.882;2024-01-30T08:20:34;11.93;;;6.90;;
81821;SDS011;72257;52.384;4.882;2024-01-30T08:23:00;11.70;;;6.67;;
81821;SDS011;72257;52.384;4.882;2024-01-30T08:25:25;13.60;;;6.57;;
81821;SDS011;72257;52.384;4.882;2024-01-30T08:27:51;11.15;;;6.20;;
81821;SDS011;72257;52.384;4.882;2024-01-30T08:30:16;11.48;;;6.38;;
81821;SDS011;72257;52.384;4.882;2024-01-30T08:32:42;11.27;;;6.15;;
81821;SDS011;72257;52.384;4.882;2024-01-30T08:35:07;15.33;;;6.87;;
81821;SDS011;72257;52.384;4.882;2024-01-30T08:37:33;10.75;;;6.38;;
81821;SDS011;72257;52.384;4.882;2024-01-30T08:39:59;13.65;;;6.43;;
81821;SDS011;72257;52.384;4.882;2024-01-30T08:42:25;12.07;;;5.85;;
81821;SDS011;72257;52.384;4.882;2024-01-30T08:44:51;13.73;;;5.90;;
81821;SDS011;72257;52.384;4.882;2024-01-30T08:47:18;13.13;;;6.72;;
81821;SDS011;72257;52.384;4.882;2024-01-30T08:49:43;11.73;;;5.97;;
81821;SDS011;72257;52.384;4.882;2024-01-30T08:52:09;13.80;;;6.78;;
81821;SDS011;72257;52.384;4.882;2024-01-30T08:54:35;10.95;;;6.07;;
81821;SDS011;72257;52.384;4.882;2024-01-30T08:57:01;12.30;;;6.70;;
81821;SDS011;72257;52.384;4.882;2024-01-30T08:59:26;9.52;;;5.90;;
81821;SDS011;72257;52.384;4.882;2024-01-30T09:01:51;11.13;;;5.85;;
81821;SDS011;72257;52.384;4.882;2024-01-30T09:04:20;12.23;;;6.30;;
81821;SDS011;72257;52.384;4.882;2024-01-30T09:06:45;15.45;;;6.57;;
81821;SDS011;72257;52.384;4.882;2024-01-30T09:09:11;10.23;;;6.28;;
81821;SDS011;72257;52.384;4.882;2024-01-30T09:11:36;10.63;;;6.90;;
81821;SDS011;72257;52.384;4.882;2024-01-30T09:14:02;11.57;;;6.60;;
81821;SDS011;72257;52.384;4.882;2024-01-30T09:16:27;12.67;;;6.40;;
81821;SDS011;72257;52.384;4.882;2024-01-30T09:18:52;15.63;;;6.47;;
81821;SDS011;72257;52.384;4.882;2024-01-30T09:21:17;9.73;;;6.10;;
81821;SDS011;72257;52.384;4.882;2024-01-30T09:23:43;11.60;;;6.50;;
81821;SDS011;72257;52.384;4.882;2024-01-30T09:26:08;11.70;;;6.45;;
81821;SDS011;72257;52.384;4.882;2024-01-30T09:28:34;16.23;;;6.67;;
81821;SDS011;72257;52.384;4.882;2024-01-30T09:30:59;17.55;;;6.05;;
81821;SDS011;72257;52.384;4.882;2024-01-30T09:33:25;16.17;;;5.83;;
81821;SDS011;72257;52.384;4.882;2024-01-30T09:35:55;15.57;;;5.10;;
81821;SDS011;72257;52.384;4.882;2024-01-30T09:38:20;11.80;;;6.23;;
81821;SDS011;72257;52.384;4.882;2024-01-30T09:40:47;12.15;;;5.60;;
81821;SDS011;72257;52.384;4.882;2024-01-30T09:43:19;11.40;;;5.82;;
81821;SDS011;72257;52.384;4.882;2024-01-30T09:45:48;13.57;;;5.78;;
81821;SDS011;72257;52.384;4.882;2024-01-30T09:48:15;15.13;;;6.10;;
81821;SDS011;72257;52.384;4.882;2024-01-30T09:50:40;12.20;;;5.53;;
81821;SDS011;72257;52.384;4.882;2024-01-30T09:53:06;10.35;;;4.97;;
81821;SDS011;72257;52.384;4.882;2024-01-30T09:55:33;13.10;;;3.95;;
81821;SDS011;72257;52.384;4.882;2024-01-30T09:58:00;19.73;;;4.72;;
81821;SDS011;72257;52.384;4.882;2024-01-30T10:00:26;7.65;;;3.22;;
81821;SDS011;72257;52.384;4.882;2024-01-30T10:02:52;7.90;;;3.20;;
81821;SDS011;72257;52.384;4.882;2024-01-30T10:05:18;7.65;;;2.83;;
81821;SDS011;72257;52.384;4.882;2024-01-30T10:07:53;7.07;;;2.83;;
81821;SDS011;72257;52.384;4.882;2024-01-30T10:10:25;11.20;;;3.08;;
81821;SDS011;72257;52.384;4.882;2024-01-30T10:12:51;5.32;;;1.60;;
81821;SDS011;72257;52.384;4.882;2024-01-30T10:15:19;4.72;;;1.88;;
81821;SDS011;72257;52.384;4.882;2024-01-30T10:17:45;7.80;;;1.48;;
81821;SDS011;72257;52.384;4.882;2024-01-30T10:20:11;4.00;;;1.63;;
81821;SDS011;72257;52.384;4.882;2024-01-30T10:22:36;2.90;;;1.45;;
81821;SDS011;72257;52.384;4.882;2024-01-30T10:25:02;3.03;;;1.20;;
81821;SDS011;72257;52.384;4.882;2024-01-30T10:27:28;6.00;;;1.58;;
81821;SDS011;72257;52.384;4.882;2024-01-30T10:29:54;6.20;;;1.40;;
81821;SDS011;72257;52.384;4.882;2024-01-30T10:32:20;3.40;;;1.13;;
81821;SDS011;72257;52.384;4.882;2024-01-30T10:34:46;3.13;;;1.25;;
81821;SDS011;72257;52.384;4.882;2024-01-30T10:37:11;3.85;;;1.20;;
81821;SDS011;72257;52.384;4.882;2024-01-30T10:39:40;4.70;;;1.40;;
81821;SDS011;72257;52.384;4.882;2024-01-30T10:42:06;3.78;;;1.30;;
81821;SDS011;72257;52.384;4.882;2024-01-30T10:44:59;4.18;;;1.60;;
81821;SDS011;72257;52.384;4.882;2024-01-30T10:47:27;4.20;;;1.65;;
81821;SDS011;72257;52.384;4.882;2024-01-30T10:49:54;2.92;;;1.17;;
81821;SDS011;72257;52.384;4.882;2024-01-30T10:52:20;8.20;;;1.45;;
81821;SDS011;72257;52.384;4.882;2024-01-30T10:57:15;3.97;;;1.08;;
81821;SDS011;72257;52.384;4.882;2024-01-30T10:59:41;2.67;;;0.70;;
81821;SDS011;72257;52.384;4.882;2024-01-30T11:02:08;2.85;;;1.10;;
81821;SDS011;72257;52.384;4.882;2024-01-30T11:04:38;1.83;;;0.95;;
81821;SDS011;72257;52.384;4.882;2024-01-30T11:07:18;1.45;;;1.00;;
81821;SDS011;72257;52.384;4.882;2024-01-30T11:09:52;4.32;;;1.42;;
81821;SDS011;72257;52.384;4.882;2024-01-30T11:12:22;3.88;;;1.35;;
81821;SDS011;72257;52.384;4.882;2024-01-30T11:14:48;3.08;;;1.23;;
81821;SDS011;72257;52.384;4.882;2024-01-30T11:17:14;1.42;;;1.00;;
81821;SDS011;72257;52.384;4.882;2024-01-30T11:19:41;2.33;;;1.30;;
81821;SDS011;72257;52.384;4.882;2024-01-30T11:22:07;3.03;;;1.10;;
81821;SDS011;72257;52.384;4.882;2024-01-30T11:24:39;5.10;;;1.67;;
81821;SDS011;72257;52.384;4.882;2024-01-30T11:27:08;4.10;;;1.35;;
81821;SDS011;72257;52.384;4.882;2024-01-30T11:29:35;1.80;;;0.95;;
81821;SDS011;72257;52.384;4.882;2024-01-30T11:32:01;4.45;;;1.17;;
81821;SDS011;72257;52.384;4.882;2024-01-30T11:34:27;4.07;;;1.17;;
81821;SDS011;72257;52.384;4.882;2024-01-30T11:36:56;1.73;;;1.08;;
81821;SDS011;72257;52.384;4.882;2024-01-30T11:39:27;3.00;;;1.40;;
81821;SDS011;72257;52.384;4.882;2024-01-30T11:41:54;2.25;;;1.00;;
81821;SDS011;72257;52.384;4.882;2024-01-30T11:44:20;5.72;;;1.85;;
81821;SDS011;72257;52.384;4.882;2024-01-30T11:46:49;3.30;;;1.20;;
81821;SDS011;72257;52.384;4.882;2024-01-30T11:49:16;2.75;;;1.15;;
81821;SDS011;72257;52.384;4.882;2024-01-30T11:51:42;2.20;;;1.00;;
81821;SDS011;72257;52.384;4.882;2024-01-30T11:54:08;3.38;;;1.40;;
81821;SDS011;72257;52.384;4.882;2024-01-30T11:56:34;1.70;;;1.05;;
81821;SDS011;72257;52.384;4.882;2024-01-30T11:58:59;3.15;;;1.00;;
81821;SDS011;72257;52.384;4.882;2024-01-30T12:01:27;3.97;;;1.65;;
81821;SDS011;72257;52.384;4.882;2024-01-30T12:03:52;4.18;;;2.00;;
81821;SDS011;72257;52.384;4.882;2024-01-30T12:06:18;5.80;;;1.50;;
81821;SDS011;72257;52.384;4.882;2024-01-30T12:08:55;4.57;;;1.30;;
81821;SDS011;72257;52.384;4.882;2024-01-30T12:11:24;2.72;;;1.33;;
81821;SDS011;72257;52.384;4.882;2024-01-30T12:13:51;6.40;;;1.65;;
81821;SDS011;72257;52.384;4.882;2024-01-30T12:16:17;5.72;;;1.50;;
81821;SDS011;72257;52.384;4.882;2024-01-30T12:18:43;3.75;;;1.23;;
81821;SDS011;72257;52.384;4.882;2024-01-30T12:21:08;3.13;;;1.27;;
81821;SDS011;72257;52.384;4.882;2024-01-30T12:23:34;3.95;;;1.20;;
81821;SDS011;72257;52.384;4.882;2024-01-30T12:26:00;3.42;;;1.20;;
81821;SDS011;72257;52.384;4.882;2024-01-30T12:28:27;3.00;;;1.42;;
81821;SDS011;72257;52.384;4.882;2024-01-30T12:30:56;6.53;;;1.40;;
81821;SDS011;72257;52.384;4.882;2024-01-30T12:33:26;5.43;;;1.85;;
81821;SDS011;72257;52.384;4.882;2024-01-30T12:35:51;3.17;;;1.20;;
81821;SDS011;72257;52.384;4.882;2024-01-30T12:38:17;3.53;;;1.65;;
81821;SDS011;72257;52.384;4.882;2024-01-30T12:40:42;3.22;;;1.50;;
81821;SDS011;72257;52.384;4.882;2024-01-30T12:43:08;4.60;;;1.60;;
81821;SDS011;72257;52.384;4.882;2024-01-30T12:45:33;6.00;;;1.75;;
81821;SDS011;72257;52.384;4.882;2024-01-30T12:47:59;3.83;;;1.50;;
81821;SDS011;72257;52.384;4.882;2024-01-30T12:50:24;4.95;;;1.80;;
81821;SDS011;72257;52.384;4.882;2024-01-30T12:52:50;9.83;;;2.33;;
81821;SDS011;72257;52.384;4.882;2024-01-30T12:55:16;6.05;;;1.75;;
81821;SDS011;72257;52.384;4.882;2024-01-30T12:57:42;6.05;;;1.55;;
81821;SDS011;72257;52.384;4.882;2024-01-30T13:00:08;5.20;;;1.60;;
81821;SDS011;72257;52.384;4.882;2024-01-30T13:02:34;3.22;;;1.48;;
81821;SDS011;72257;52.384;4.882;2024-01-30T13:05:02;6.07;;;1.70;;
81821;SDS011;72257;52.384;4.882;2024-01-30T13:07:28;3.95;;;1.55;;
81821;SDS011;72257;52.384;4.882;2024-01-30T13:09:53;3.75;;;1.60;;
81821;SDS011;72257;52.384;4.882;2024-01-30T13:12:19;5.73;;;2.30;;
81821;SDS011;72257;52.384;4.882;2024-01-30T13:14:44;5.27;;;1.60;;
81821;SDS011;72257;52.384;4.882;2024-01-30T13:17:09;3.93;;;1.47;;
81821;SDS011;72257;52.384;4.882;2024-01-30T13:19:35;3.30;;;1.60;;
81821;SDS011;72257;52.384;4.882;2024-01-30T13:22:00;3.75;;;1.60;;
81821;SDS011;72257;52.384;4.882;2024-01-30T13:24:26;4.20;;;1.90;;
81821;SDS011;72257;52.384;4.882;2024-01-30T13:26:51;3.85;;;1.73;;
81821;SDS011;72257;52.384;4.882;2024-01-30T13:29:18;2.45;;;1.50;;
81821;SDS011;72257;52.384;4.882;2024-01-30T13:31:43;5.72;;;2.00;;
81821;SDS011;72257;52.384;4.882;2024-01-30T13:34:11;4.72;;;1.95;;
81821;SDS011;72257;52.384;4.882;2024-01-30T13:36:36;3.30;;;1.83;;
81821;SDS011;72257;52.384;4.882;2024-01-30T13:39:01;4.03;;;2.20;;
81821;SDS011;72257;52.384;4.882;2024-01-30T13:41:27;6.50;;;2.35;;
81821;SDS011;72257;52.384;4.882;2024-01-30T13:43:54;4.95;;;1.88;;
81821;SDS011;72257;52.384;4.882;2024-01-30T13:46:20;5.07;;;2.10;;
81821;SDS011;72257;52.384;4.882;2024-01-30T13:48:45;5.28;;;2.22;;
81821;SDS011;72257;52.384;4.882;2024-01-30T13:51:10;4.10;;;2.15;;
81821;SDS011;72257;52.384;4.882;2024-01-30T13:53:38;4.45;;;1.95;;
81821;SDS011;72257;52.384;4.882;2024-01-30T13:56:03;8.20;;;2.08;;
81821;SDS011;72257;52.384;4.882;2024-01-30T13:58:29;4.13;;;1.85;;
81821;SDS011;72257;52.384;4.882;2024-01-30T14:00:54;6.80;;;2.30;;
81821;SDS011;72257;52.384;4.882;2024-01-30T14:03:19;6.25;;;2.40;;
81821;SDS011;72257;52.384;4.882;2024-01-30T14:05:45;4.28;;;2.28;;
81821;SDS011;72257;52.384;4.882;2024-01-30T14:08:11;6.03;;;2.40;;
81821;SDS011;72257;52.384;4.882;2024-01-30T14:10:36;6.20;;;2.40;;
81821;SDS011;72257;52.384;4.882;2024-01-30T14:13:02;5.43;;;2.30;;
81821;SDS011;72257;52.384;4.882;2024-01-30T14:15:27;4.65;;;1.98;;
81821;SDS011;72257;52.384;4.882;2024-01-30T14:17:53;4.32;;;1.80;;
81821;SDS011;72257;52.384;4.882;2024-01-30T14:20:18;4.50;;;1.98;;
81821;SDS011;72257;52.384;4.882;2024-01-30T14:22:44;3.47;;;2.10;;
81821;SDS011;72257;52.384;4.882;2024-01-30T14:25:09;6.43;;;1.92;;
81821;SDS011;72257;52.384;4.882;2024-01-30T14:27:35;5.05;;;1.60;;
81821;SDS011;72257;52.384;4.882;2024-01-30T14:30:01;3.10;;;1.45;;
81821;SDS011;72257;52.384;4.882;2024-01-30T14:32:28;4.95;;;2.00;;